ETEB 260056Z AUTO 26011KT 9999 OVC011 08/08 A2951 RMK AO2 SLP010 T00790078 $ ETIK 260056Z AUTO 25013KT 9999 FEW042 OVC050 09/09 A2952 RMK AO2 SLP000 T00860086 EDDE 260120Z 22008KT CAVOK 09/06 Q0997 EDDF 260120Z 21011KT 9999 -SHRA FEW020 SCT032 BKN044 10/06 Q0998 NOSIG ETIC 260056Z AUTO 00000KT 9999 -RA SCT014 BKN021 OVC040 08/ A2946 RMK AO2 RAB14 CIG 021V041 BKN V SCT SLP980 P0000 $ ETIH 260121Z AUTO 00000KT 9999 BKN014 OVC035 08/06 A2950 RMK AO2 CIG 014V035 SLP995 $ ETSI 260120Z AUTO 26009KT 4300 // ////// 08/07 Q0999 /// EDDP 260120Z 22006KT 9999 -RA FEW035 BKN045 10/08 Q0997 NOSIG EDDM 260120Z 25012KT 9999 -RA BKN014 07/06 Q1000 NOSIG ETSN 260120Z 27009KT 9999 FEW010 BKN017 08/07 Q1000 WHT ETHN 260050Z 26015KT 9999 BKN007 OVC040 08/06 Q0999 GRN EDDN 260120Z 27009KT 9999 BKN016 09/07 Q0998 EDDS 260120Z 24007KT 200V280 9999 -RA FEW015 BKN020 08/06 Q1001

METAR Messwerte

Klicken Sie auf einen Ort, um die 36h-Historie abzurufen

Ort
m ü. NN
Zeit Temperatur Taupunkt Rel.
Luftfeuchte
Luftdruck:
Altimeter
NN
Station
Wind in Beaufort
(Knoten)
Sichtweite
(Meter)
Wolken
(Meter über Grund)
Wettererscheinung
Ansbach
467
Sa 26.09. 02:5688100 %999
1000
945
W 4 (11)>= 10000Bedeckt (340) 
Bad Windsheim / Illesheim
325
Sa 26.09. 02:5699100 %1000
1001
962
WSW 4 (13)>= 10000Bedeckt (1500)
Leicht bewölkt (1300)
 
Erfurt-Bindersleben
323
Sa 26.09. 03:209681 %997
998
959
SW 3 (8)>= 10000Nicht signifikant 
Frankfurt
113
Sa 26.09. 03:2010676 %998
998
985
SSW 4 (11)>= 10000Stark bewölkt (1300)
Wolkig (980)
Leicht bewölkt (610)
Regen-Schauer (schwach)
Grafenwöhr
415
Sa 26.09. 02:56    %998
 
 
Windstill>= 10000Bedeckt (1200)
Stark bewölkt (640)
Wolkig (430)
Regen (schwach)
Hohenfels
442
Sa 26.09. 03:218687 %999
1000
948
Windstill>= 10000Bedeckt (1100)
Stark bewölkt (430)
 
Ingolstadt
370
Sa 26.09. 03:208793 %999
1000
956
W 3 (9)4300  
Leipzig-Schkeuditz
149
Sa 26.09. 03:2010887 %997
997
979
SW 2 (6)>= 10000Stark bewölkt (1400)
Leicht bewölkt (1100)
Regen (schwach)
München
447
Sa 26.09. 03:207693 %1000
1001
948
WSW 4 (12)>= 10000Stark bewölkt (430)Regen (schwach)
Neuburg/Donau
387
Sa 26.09. 03:208793 %1000
1001
955
W 3 (9)>= 10000Stark bewölkt (520)
Leicht bewölkt (300)
 
Niederstetten
473
Sa 26.09. 02:508687 %999
1000
944
W 4 (15)>= 10000Bedeckt (1200)
Stark bewölkt (210)
 
Nürnberg
312
Sa 26.09. 03:209787 %998
999
962
W 3 (9)>= 10000Stark bewölkt (490) 
Stuttgart
419
Sa 26.09. 03:208687 %1001
1002
952
WSW 3 (7)
SSW - W
>= 10000Stark bewölkt (610)
Leicht bewölkt (460)
Regen (schwach)

Altimeter: Einstellung am Altimeter (Höhenmesser), die Höhe 0 muss auf diesen Luftdruckwert zeigen, damit das Gerät die Stationshöhe richtig anzeigt.

NN: Luftdruck reduziert auf "Normal Null", auf Meereshöhe, dieser von der Temperatur abhängige Wert wird bisweilen unkorrekt einfach als "Luftdruck" bezeichnet. Eigentlich nur eine fiktive Größe, die es erlaubt, Stationen auf unterschiedlichen Höhen miteinander zu vergleichen.

Station: Realer Luftdruck an der Station.